»·PEaware :: N130LM KMAF-KHRL

N130LM :: KMAF-KHRL

FLIGHT INFORMATION

Flight Status: Arrived
Operator: Privately registered:
United States
More flights under this callsign
Pilot: Justin M. (19723)
Aircraft: DASSAULT AVIATION FALCON 50
(FA50)
More flights by this aircraft type
Origin: KMAF Midland Intl
United States
Destination: KHRL Valley Intl
United States
More flights between these airports :: More routes between these airports
Route: +LRD MFE
File this flight plan on PilotEdge
Remarks:
Altitude:
(Current/Filed)
350ft
Speed:
(Current/Filed)
470kts
Departed: 17-Mar-20 06:16 AM
Arrived: 17-Mar-20 07:19 AM
Distance/Time
Traveled:
255nm/1:03
Distance/Time
To Go:
Arrived

Flight Plot

Page will automatically refresh every two minutes.

Flight plan parsing failed; only flown route is shown


Map Options




Map Legend


Flown Route
Filed Route
Departure Airport
Arrival Airport
Navaid (VOR, NDB)
Fix

Horizontal Profiles

Position Reports

Time Latitude Longitude Heading Altitude Ground
Speed
17-Mar-20 06:10 31.941530 -102.207016 173 2878ft 0kts
17-Mar-20 06:11 31.941619 -102.205849 8 2878ft 11kts
17-Mar-20 06:12 31.943712 -102.209449 294 2878ft 19kts
17-Mar-20 06:13 31.946314 -102.216399 296 2878ft 26kts
17-Mar-20 06:14 31.947304 -102.216464 41 2878ft 9kts
17-Mar-20 06:15 31.931313 -102.179048 140 4316ft 211kts
17-Mar-20 06:16 31.863263 -102.142770 159 8391ft 292kts
17-Mar-20 06:17 31.789957 -102.102867 159 13844ft 308kts
17-Mar-20 06:18 31.710663 -102.056317 156 18091ft 335kts
17-Mar-20 06:19 31.628280 -102.001262 156 21830ft 350kts
17-Mar-20 06:20 31.540702 -101.943874 156 24436ft 379kts
17-Mar-20 06:21 31.445027 -101.881565 156 26482ft 406kts
17-Mar-20 06:22 31.345160 -101.816559 157 28511ft 418kts
17-Mar-20 06:23 31.242601 -101.750029 158 30429ft 424kts
17-Mar-20 06:24 31.141769 -101.684786 158 33059ft 407kts
17-Mar-20 06:25 31.043631 -101.621506 159 35129ft 401kts
17-Mar-20 06:26 30.940740 -101.555691 158 35133ft 440kts
17-Mar-20 06:27 30.831747 -101.485650 158 35141ft 460kts
17-Mar-20 06:28 30.719198 -101.413410 158 35141ft 461kts
17-Mar-20 06:29 30.606966 -101.341787 158 35121ft 460kts
17-Mar-20 06:30 30.494762 -101.270346 159 35105ft 459kts
17-Mar-20 06:31 30.382354 -101.198943 158 35107ft 459kts
17-Mar-20 06:32 30.270392 -101.128060 158 35105ft 459kts
17-Mar-20 06:33 30.158261 -101.057336 158 35101ft 459kts
17-Mar-20 06:34 30.046446 -100.986870 159 35492ft 456kts
17-Mar-20 06:35 29.936862 -100.917915 159 36914ft 444kts
17-Mar-20 06:36 29.826829 -100.849185 159 37155ft 459kts
17-Mar-20 06:37 29.713785 -100.778492 159 37179ft 462kts
17-Mar-20 06:38 29.601191 -100.708255 159 37178ft 462kts
17-Mar-20 06:39 29.488024 -100.637889 159 37177ft 462kts
17-Mar-20 06:40 29.374967 -100.567779 159 37140ft 462kts
17-Mar-20 06:41 29.261322 -100.497477 158 37058ft 463kts
17-Mar-20 06:42 29.147985 -100.427545 158 37056ft 463kts
17-Mar-20 06:43 29.034966 -100.357987 158 37055ft 464kts
17-Mar-20 06:44 28.929959 -100.293526 159 37044ft 464kts
17-Mar-20 06:45 28.816400 -100.223974 159 37056ft 464kts
17-Mar-20 06:46 28.702555 -100.154418 159 37069ft 464kts
17-Mar-20 06:47 28.588770 -100.085074 159 37082ft 464kts
17-Mar-20 06:48 28.474857 -100.015830 159 37075ft 465kts
17-Mar-20 06:49 28.360528 -99.946507 158 37067ft 466kts
17-Mar-20 06:50 28.246423 -99.877467 158 37056ft 465kts
17-Mar-20 06:51 28.132150 -99.808515 158 37043ft 465kts
17-Mar-20 06:52 28.018190 -99.739913 158 37042ft 465kts
17-Mar-20 06:53 27.903615 -99.671112 158 37042ft 465kts
17-Mar-20 06:54 27.789193 -99.602578 158 37053ft 466kts
17-Mar-20 06:55 27.674547 -99.534061 158 37052ft 467kts
17-Mar-20 06:56 27.559345 -99.465389 158 37052ft 468kts
17-Mar-20 06:57 27.447466 -99.388798 148 37050ft 478kts
17-Mar-20 06:58 27.343722 -99.293979 147 37041ft 480kts
17-Mar-20 06:59 27.239773 -99.199072 147 37041ft 480kts
17-Mar-20 07:00 27.135710 -99.104417 147 37041ft 481kts
17-Mar-20 07:01 27.031750 -99.010082 147 37048ft 482kts
17-Mar-20 07:02 26.927505 -98.915713 147 35885ft 479kts
17-Mar-20 07:03 26.823727 -98.822033 146 33903ft 481kts
17-Mar-20 07:04 26.719134 -98.727860 145 31937ft 487kts
17-Mar-20 07:05 26.613029 -98.632522 145 29962ft 492kts
17-Mar-20 07:06 26.509005 -98.533336 129 27953ft 497kts
17-Mar-20 07:07 26.474379 -98.391083 104 24790ft 449kts
17-Mar-20 07:08 26.449568 -98.263394 104 21225ft 410kts
17-Mar-20 07:09 26.427065 -98.143254 104 17621ft 387kts
17-Mar-20 07:10 26.405829 -98.029014 102 14014ft 367kts
17-Mar-20 07:11 26.386011 -97.922455 102 10478ft 316kts
17-Mar-20 07:12 26.370548 -97.839427 105 7354ft 247kts
17-Mar-20 07:13 26.341925 -97.782201 138 4244ft 193kts
17-Mar-20 07:14 26.304948 -97.741830 137 2044ft 178kts
17-Mar-20 07:15 26.272153 -97.706168 139 1186ft 141kts
17-Mar-20 07:16 26.245481 -97.677221 141 394ft 128kts
17-Mar-20 07:17 26.224219 -97.654248 138 33ft 62kts
17-Mar-20 07:18 26.220029 -97.647704 61 33ft 11kts
17-Mar-20 07:19 26.222884 -97.646607 356 33ft 11kts
17-Mar-20 07:20 26.223540 -97.646797 268 33ft 0kts
17-Mar-20 07:21 26.223540 -97.646797 268 33ft 0kts
17-Mar-20 07:22 26.223540 -97.646797 268 33ft 0kts
17-Mar-20 07:23 26.223540 -97.646797 268 33ft 0kts
17-Mar-20 07:24 26.223540 -97.646797 268 33ft 0kts
17-Mar-20 07:25 29.889780 -97.866320 0 580ft 0kts
17-Mar-20 07:26 29.889780 -97.866320 0 580ft 0kts
17-Mar-20 07:27 29.889780 -97.866320 0 580ft 0kts
17-Mar-20 07:28 29.889780 -97.866320 0 580ft 0kts
17-Mar-20 07:29 29.889780 -97.866320 0 580ft 0kts
17-Mar-20 07:30 29.889780 -97.866320 0 580ft 0kts
17-Mar-20 07:31 29.889780 -97.866320 0 580ft 0kts
17-Mar-20 07:32 29.889780 -97.866320 0 580ft 0kts

Navigation Log

Ident Type
Flight plan parsing failed, navigation log unavailable